Weather at Batlava-Donja Penduha Air Base [CLOSED]

Public forecast

Using degrees Celsius for public forecast. Weather courtesy of forecast.io.

Closest aviation weather report (METAR) to Batlava-Donja Penduha Air Base

Closest report is Priština Adem Jashari International Airport, 18.5 nm (34.4 km) SSW.

2024/07/24 14:30 (retrieved 27 minutes ago)

BKPR 241430Z 34019KT 9999 SCT040 BKN070 25/16 Q1012 NOSIG

Closest aviation forecast (TAF) to Batlava-Donja Penduha Air Base

Closest forecast is Priština Adem Jashari International Airport, 18.5 nm (34.4 km) SSW.

2024/07/24 12:00 (retrieved 3 hours ago)

TAF BKPR 241130Z 2412/2512 01008KT 9999 SCT050 TEMPO 2412/2422 VRB15G25KT 3000 TSRA SCT025CB